Aviation Digital Data Service (ADDS)

Output produced by METARs form (2138 UTC 21 May 2022)
found at http://www.aviationweather.gov/metar/data/
 
TAF FEFF 211100Z 2112/2218 20006KT 9999 SCT014 
     PROB30 2114/2119 TS SCT014 FEW033CB 
     BECMG 2209/2211 BKN020 FEW033CB 
     TEMPO 2213/2217 4000 TSRA